Terminal Aerodrome Forecast
Issued by NWS Jackson, KY

Home | Current Version | Previous Version | Text Only | Print | Product List | Glossary On
Versions: 1 2 3 4 5 6 7 8 9 10 11 12 13 14 15
000
FTUS43 KJKL 261510 AAB
TAFJKL
TAF AMD
KJKL 261510Z 2615/2712 VRB07KT P6SM VCSH BKN030
     FM261800 26010G20KT 5SM -RA OVC020
     FM262200 32009G15KT 3SM -RA BR OVC009
     FM270500 35006KT 6SM -RA SCT010 BKN025
     FM270900 01005KT P6SM SCT025 BKN050=

USA.gov is the U.S. government's official web portal to all federal, state and local government web resources and services.